Lambertville, New Jersey
Current Conditions -  °F | °C
As of 5:53 AM on Wednesday 22 Oct 2014 (Local Time) from KTTN Reporting Station
Overcast Overcast  
Wind Chill: 56°   Ceiling: 1100
Heat Index: 56°   Visibility: 10mi
Dew Point: 52°   Wind: 12mph
Humidity: 87%   Direction: 30°NNE
Pressure: 29.86"   Gusts: NA
Location:  40.37°N, 74.94°W
Report Text: KTTN 220953Z 03010KT 10SM BKN011 OVC085 13/11 A2986 RMK AO2 LTG DSNT E RAB17E32 SLP105 P0000 T01330111
Loading
Personal Weather Stations






























Interactive Weather Map
Tropical Storm Tracking
New forecast layout! Learn more

10-Day Weather Forecast

Advertisements
Track Severe Weather on mobile